sensor_id;sensor_type;location;lat;lon;timestamp;temperature;humidity
51567;DHT22;37657;53.182;5.638;2023-06-05T00:00:47;12.20;99.90
51567;DHT22;37657;53.182;5.638;2023-06-05T00:03:12;12.20;99.90
51567;DHT22;37657;53.182;5.638;2023-06-05T00:05:38;12.10;99.90
51567;DHT22;37657;53.182;5.638;2023-06-05T00:08:03;12.10;99.90
51567;DHT22;37657;53.182;5.638;2023-06-05T00:10:29;12.20;99.90
51567;DHT22;37657;53.182;5.638;2023-06-05T00:12:54;12.20;99.90
51567;DHT22;37657;53.182;5.638;2023-06-05T00:15:20;12.20;99.90
51567;DHT22;37657;53.182;5.638;2023-06-05T00:17:46;12.20;99.90
51567;DHT22;37657;53.182;5.638;2023-06-05T00:20:12;12.20;99.90
51567;DHT22;37657;53.182;5.638;2023-06-05T00:22:38;12.20;99.90
51567;DHT22;37657;53.182;5.638;2023-06-05T00:25:05;12.20;99.90
51567;DHT22;37657;53.182;5.638;2023-06-05T00:27:31;12.20;99.90
51567;DHT22;37657;53.182;5.638;2023-06-05T00:29:57;12.20;99.90
51567;DHT22;37657;53.182;5.638;2023-06-05T00:32:22;12.20;99.90
51567;DHT22;37657;53.182;5.638;2023-06-05T00:34:48;12.10;99.90
51567;DHT22;37657;53.182;5.638;2023-06-05T00:37:15;12.10;99.90
51567;DHT22;37657;53.182;5.638;2023-06-05T00:39:41;12.10;99.90
51567;DHT22;37657;53.182;5.638;2023-06-05T00:42:08;12.10;99.90
51567;DHT22;37657;53.182;5.638;2023-06-05T00:44:34;12.10;99.90
51567;DHT22;37657;53.182;5.638;2023-06-05T00:47:00;12.10;99.90
51567;DHT22;37657;53.182;5.638;2023-06-05T00:49:26;12.10;99.90
51567;DHT22;37657;53.182;5.638;2023-06-05T00:51:52;12.10;99.90
51567;DHT22;37657;53.182;5.638;2023-06-05T00:54:18;12.10;99.90
51567;DHT22;37657;53.182;5.638;2023-06-05T00:56:46;12.00;99.90
51567;DHT22;37657;53.182;5.638;2023-06-05T00:59:12;12.00;99.90
51567;DHT22;37657;53.182;5.638;2023-06-05T01:01:39;11.90;99.90
51567;DHT22;37657;53.182;5.638;2023-06-05T01:04:06;11.90;99.90
51567;DHT22;37657;53.182;5.638;2023-06-05T01:06:32;11.90;99.90
51567;DHT22;37657;53.182;5.638;2023-06-05T01:08:59;12.10;99.90
51567;DHT22;37657;53.182;5.638;2023-06-05T01:11:40;11.90;99.90
51567;DHT22;37657;53.182;5.638;2023-06-05T01:14:18;11.90;99.90
51567;DHT22;37657;53.182;5.638;2023-06-05T01:16:51;11.90;99.90
51567;DHT22;37657;53.182;5.638;2023-06-05T01:19:22;11.90;99.90
51567;DHT22;37657;53.182;5.638;2023-06-05T01:21:50;11.90;99.90
51567;DHT22;37657;53.182;5.638;2023-06-05T01:24:16;11.90;99.90
51567;DHT22;37657;53.182;5.638;2023-06-05T01:26:48;11.90;99.90
51567;DHT22;37657;53.182;5.638;2023-06-05T01:29:23;11.90;99.90
51567;DHT22;37657;53.182;5.638;2023-06-05T01:31:51;11.90;99.90
51567;DHT22;37657;53.182;5.638;2023-06-05T01:34:20;11.80;99.90
51567;DHT22;37657;53.182;5.638;2023-06-05T01:36:46;11.90;99.90
51567;DHT22;37657;53.182;5.638;2023-06-05T01:39:13;11.90;99.90
51567;DHT22;37657;53.182;5.638;2023-06-05T01:41:40;11.90;99.90
51567;DHT22;37657;53.182;5.638;2023-06-05T01:44:06;11.90;99.90
51567;DHT22;37657;53.182;5.638;2023-06-05T01:46:34;11.90;99.90
51567;DHT22;37657;53.182;5.638;2023-06-05T01:49:01;11.90;99.90
51567;DHT22;37657;53.182;5.638;2023-06-05T01:51:28;11.90;99.90
51567;DHT22;37657;53.182;5.638;2023-06-05T01:53:54;11.90;99.90
51567;DHT22;37657;53.182;5.638;2023-06-05T01:56:21;12.00;99.90
51567;DHT22;37657;53.182;5.638;2023-06-05T01:58:49;12.00;99.90
51567;DHT22;37657;53.182;5.638;2023-06-05T02:01:14;12.00;99.90
51567;DHT22;37657;53.182;5.638;2023-06-05T02:03:42;12.00;99.90
51567;DHT22;37657;53.182;5.638;2023-06-05T02:06:16;12.00;99.90
51567;DHT22;37657;53.182;5.638;2023-06-05T02:08:42;12.10;99.90
51567;DHT22;37657;53.182;5.638;2023-06-05T02:11:08;12.00;99.90
51567;DHT22;37657;53.182;5.638;2023-06-05T02:13:39;12.00;99.90
51567;DHT22;37657;53.182;5.638;2023-06-05T02:16:07;12.00;99.90
51567;DHT22;37657;53.182;5.638;2023-06-05T02:18:33;12.00;99.90
51567;DHT22;37657;53.182;5.638;2023-06-05T02:21:02;12.00;99.90
51567;DHT22;37657;53.182;5.638;2023-06-05T02:23:28;12.00;99.90
51567;DHT22;37657;53.182;5.638;2023-06-05T02:25:53;12.00;99.90
51567;DHT22;37657;53.182;5.638;2023-06-05T02:28:19;12.00;99.90
51567;DHT22;37657;53.182;5.638;2023-06-05T02:30:45;12.10;99.90
51567;DHT22;37657;53.182;5.638;2023-06-05T02:33:13;12.00;99.90
51567;DHT22;37657;53.182;5.638;2023-06-05T02:35:40;12.10;99.90
51567;DHT22;37657;53.182;5.638;2023-06-05T02:38:08;12.00;99.90
51567;DHT22;37657;53.182;5.638;2023-06-05T02:40:35;12.00;99.90
51567;DHT22;37657;53.182;5.638;2023-06-05T02:43:01;12.00;99.90
51567;DHT22;37657;53.182;5.638;2023-06-05T02:45:27;12.00;99.90
51567;DHT22;37657;53.182;5.638;2023-06-05T02:47:52;12.00;99.90
51567;DHT22;37657;53.182;5.638;2023-06-05T02:50:18;12.00;99.90
51567;DHT22;37657;53.182;5.638;2023-06-05T02:52:43;12.00;99.90
51567;DHT22;37657;53.182;5.638;2023-06-05T02:55:10;12.00;99.90
51567;DHT22;37657;53.182;5.638;2023-06-05T02:57:35;12.00;99.90
51567;DHT22;37657;53.182;5.638;2023-06-05T03:00:10;12.00;99.90
51567;DHT22;37657;53.182;5.638;2023-06-05T03:02:45;12.00;99.90
51567;DHT22;37657;53.182;5.638;2023-06-05T03:05:17;12.00;99.90
51567;DHT22;37657;53.182;5.638;2023-06-05T03:07:53;12.00;99.90
51567;DHT22;37657;53.182;5.638;2023-06-05T03:10:22;12.10;99.90
51567;DHT22;37657;53.182;5.638;2023-06-05T03:12:47;12.00;99.90
51567;DHT22;37657;53.182;5.638;2023-06-05T03:15:13;12.10;99.90
51567;DHT22;37657;53.182;5.638;2023-06-05T03:17:40;12.10;99.90
51567;DHT22;37657;53.182;5.638;2023-06-05T03:20:07;12.10;99.90
51567;DHT22;37657;53.182;5.638;2023-06-05T03:22:34;12.10;99.90
51567;DHT22;37657;53.182;5.638;2023-06-05T03:25:00;12.10;99.90
51567;DHT22;37657;53.182;5.638;2023-06-05T03:27:26;12.10;99.90
51567;DHT22;37657;53.182;5.638;2023-06-05T03:29:51;12.10;99.90
51567;DHT22;37657;53.182;5.638;2023-06-05T03:32:17;12.10;99.90
51567;DHT22;37657;53.182;5.638;2023-06-05T03:34:43;12.10;99.90
51567;DHT22;37657;53.182;5.638;2023-06-05T03:37:08;12.10;99.90
51567;DHT22;37657;53.182;5.638;2023-06-05T03:39:34;12.10;99.90
51567;DHT22;37657;53.182;5.638;2023-06-05T03:41:59;12.10;99.90
51567;DHT22;37657;53.182;5.638;2023-06-05T03:44:26;12.10;99.90
51567;DHT22;37657;53.182;5.638;2023-06-05T03:46:51;12.10;99.90
51567;DHT22;37657;53.182;5.638;2023-06-05T03:49:17;12.10;99.90
51567;DHT22;37657;53.182;5.638;2023-06-05T03:51:43;12.10;99.90
51567;DHT22;37657;53.182;5.638;2023-06-05T03:54:10;12.10;99.90
51567;DHT22;37657;53.182;5.638;2023-06-05T03:56:38;12.10;99.90
51567;DHT22;37657;53.182;5.638;2023-06-05T03:59:08;12.10;99.90
51567;DHT22;37657;53.182;5.638;2023-06-05T04:01:45;12.10;99.90
51567;DHT22;37657;53.182;5.638;2023-06-05T04:04:10;12.10;99.90
51567;DHT22;37657;53.182;5.638;2023-06-05T04:06:36;12.10;99.90
51567;DHT22;37657;53.182;5.638;2023-06-05T04:09:02;12.10;99.90
51567;DHT22;37657;53.182;5.638;2023-06-05T04:11:34;12.10;99.90
51567;DHT22;37657;53.182;5.638;2023-06-05T04:14:00;12.00;99.90
51567;DHT22;37657;53.182;5.638;2023-06-05T04:16:25;12.00;99.90
51567;DHT22;37657;53.182;5.638;2023-06-05T04:18:51;12.00;99.90
51567;DHT22;37657;53.182;5.638;2023-06-05T04:21:16;12.00;99.90
51567;DHT22;37657;53.182;5.638;2023-06-05T04:23:42;12.00;99.90
51567;DHT22;37657;53.182;5.638;2023-06-05T04:26:08;12.00;99.90
51567;DHT22;37657;53.182;5.638;2023-06-05T04:28:33;12.00;99.90
51567;DHT22;37657;53.182;5.638;2023-06-05T04:31:00;12.20;99.90
51567;DHT22;37657;53.182;5.638;2023-06-05T04:33:27;12.00;99.90
51567;DHT22;37657;53.182;5.638;2023-06-05T04:35:52;12.00;99.90
51567;DHT22;37657;53.182;5.638;2023-06-05T04:38:18;12.00;99.90
51567;DHT22;37657;53.182;5.638;2023-06-05T04:40:49;12.00;99.90
51567;DHT22;37657;53.182;5.638;2023-06-05T04:43:15;12.00;99.90
51567;DHT22;37657;53.182;5.638;2023-06-05T04:45:41;12.10;99.90
51567;DHT22;37657;53.182;5.638;2023-06-05T04:48:08;12.10;99.90
51567;DHT22;37657;53.182;5.638;2023-06-05T04:50:33;12.20;99.90
51567;DHT22;37657;53.182;5.638;2023-06-05T04:53:01;12.20;99.90
51567;DHT22;37657;53.182;5.638;2023-06-05T04:55:27;12.20;99.90
51567;DHT22;37657;53.182;5.638;2023-06-05T04:57:52;12.20;99.90
51567;DHT22;37657;53.182;5.638;2023-06-05T05:00:18;12.30;99.90
51567;DHT22;37657;53.182;5.638;2023-06-05T05:02:44;12.20;99.90
51567;DHT22;37657;53.182;5.638;2023-06-05T05:05:10;12.20;99.90
51567;DHT22;37657;53.182;5.638;2023-06-05T05:07:42;12.20;99.90
51567;DHT22;37657;53.182;5.638;2023-06-05T05:10:09;12.20;99.90
51567;DHT22;37657;53.182;5.638;2023-06-05T05:12:35;12.10;99.90
51567;DHT22;37657;53.182;5.638;2023-06-05T05:15:02;12.10;99.90
51567;DHT22;37657;53.182;5.638;2023-06-05T05:17:29;12.20;99.90
51567;DHT22;37657;53.182;5.638;2023-06-05T05:19:55;12.20;99.90
51567;DHT22;37657;53.182;5.638;2023-06-05T05:22:21;12.20;99.90
51567;DHT22;37657;53.182;5.638;2023-06-05T05:24:47;12.20;99.90
51567;DHT22;37657;53.182;5.638;2023-06-05T05:27:12;12.30;99.90
51567;DHT22;37657;53.182;5.638;2023-06-05T05:29:38;12.30;99.90
51567;DHT22;37657;53.182;5.638;2023-06-05T05:32:03;12.30;99.90
51567;DHT22;37657;53.182;5.638;2023-06-05T05:34:30;12.30;99.90
51567;DHT22;37657;53.182;5.638;2023-06-05T05:36:56;12.30;99.90
51567;DHT22;37657;53.182;5.638;2023-06-05T05:39:22;12.30;99.90
51567;DHT22;37657;53.182;5.638;2023-06-05T05:41:47;12.40;99.90
51567;DHT22;37657;53.182;5.638;2023-06-05T05:44:13;12.30;99.90
51567;DHT22;37657;53.182;5.638;2023-06-05T05:46:38;12.40;99.90
51567;DHT22;37657;53.182;5.638;2023-06-05T05:49:04;12.30;99.90
51567;DHT22;37657;53.182;5.638;2023-06-05T05:51:30;12.40;99.90
51567;DHT22;37657;53.182;5.638;2023-06-05T05:53:55;12.50;99.90
51567;DHT22;37657;53.182;5.638;2023-06-05T05:56:21;12.50;99.90
51567;DHT22;37657;53.182;5.638;2023-06-05T05:58:46;12.50;99.90
51567;DHT22;37657;53.182;5.638;2023-06-05T06:01:12;12.50;99.90
51567;DHT22;37657;53.182;5.638;2023-06-05T06:03:38;12.40;99.90
51567;DHT22;37657;53.182;5.638;2023-06-05T06:06:04;12.50;99.90
51567;DHT22;37657;53.182;5.638;2023-06-05T06:08:35;12.40;99.90
51567;DHT22;37657;53.182;5.638;2023-06-05T06:11:01;12.40;99.90
51567;DHT22;37657;53.182;5.638;2023-06-05T06:13:29;12.40;99.90
51567;DHT22;37657;53.182;5.638;2023-06-05T06:15:54;12.30;99.90
51567;DHT22;37657;53.182;5.638;2023-06-05T06:18:20;12.30;99.90
51567;DHT22;37657;53.182;5.638;2023-06-05T06:20:46;12.30;99.90
51567;DHT22;37657;53.182;5.638;2023-06-05T06:23:12;12.40;99.90
51567;DHT22;37657;53.182;5.638;2023-06-05T06:25:38;12.40;99.90
51567;DHT22;37657;53.182;5.638;2023-06-05T06:28:04;12.50;99.90
51567;DHT22;37657;53.182;5.638;2023-06-05T06:30:31;12.50;99.90
51567;DHT22;37657;53.182;5.638;2023-06-05T06:32:57;12.50;99.90
51567;DHT22;37657;53.182;5.638;2023-06-05T06:35:25;12.50;99.90
51567;DHT22;37657;53.182;5.638;2023-06-05T06:37:55;12.40;99.90
51567;DHT22;37657;53.182;5.638;2023-06-05T06:40:22;12.50;99.90
51567;DHT22;37657;53.182;5.638;2023-06-05T06:42:48;12.50;99.90
51567;DHT22;37657;53.182;5.638;2023-06-05T06:45:14;12.60;99.90
51567;DHT22;37657;53.182;5.638;2023-06-05T06:47:40;12.60;99.90
51567;DHT22;37657;53.182;5.638;2023-06-05T06:50:07;12.60;99.90
51567;DHT22;37657;53.182;5.638;2023-06-05T06:52:32;12.70;99.90
51567;DHT22;37657;53.182;5.638;2023-06-05T06:54:58;12.80;99.90
51567;DHT22;37657;53.182;5.638;2023-06-05T06:57:23;12.70;99.90
51567;DHT22;37657;53.182;5.638;2023-06-05T06:59:49;12.70;99.90
51567;DHT22;37657;53.182;5.638;2023-06-05T07:02:17;12.70;99.90
51567;DHT22;37657;53.182;5.638;2023-06-05T07:04:44;12.80;99.90
51567;DHT22;37657;53.182;5.638;2023-06-05T07:07:10;12.80;99.90
51567;DHT22;37657;53.182;5.638;2023-06-05T07:09:44;12.80;99.90
51567;DHT22;37657;53.182;5.638;2023-06-05T07:12:13;12.90;99.90
51567;DHT22;37657;53.182;5.638;2023-06-05T07:14:39;12.90;99.90
51567;DHT22;37657;53.182;5.638;2023-06-05T07:17:05;13.00;99.90
51567;DHT22;37657;53.182;5.638;2023-06-05T07:19:32;13.00;99.90
51567;DHT22;37657;53.182;5.638;2023-06-05T07:22:00;13.10;99.90
51567;DHT22;37657;53.182;5.638;2023-06-05T07:24:28;13.10;99.90
51567;DHT22;37657;53.182;5.638;2023-06-05T07:26:55;13.10;99.90
51567;DHT22;37657;53.182;5.638;2023-06-05T07:29:24;13.10;99.90
51567;DHT22;37657;53.182;5.638;2023-06-05T07:31:51;13.10;99.90
51567;DHT22;37657;53.182;5.638;2023-06-05T07:34:21;13.10;99.90
51567;DHT22;37657;53.182;5.638;2023-06-05T07:36:48;13.20;99.90
51567;DHT22;37657;53.182;5.638;2023-06-05T07:39:15;13.20;99.90
51567;DHT22;37657;53.182;5.638;2023-06-05T07:41:41;13.20;99.90
51567;DHT22;37657;53.182;5.638;2023-06-05T07:44:09;13.20;99.90
51567;DHT22;37657;53.182;5.638;2023-06-05T07:46:36;13.20;99.90
51567;DHT22;37657;53.182;5.638;2023-06-05T07:49:01;13.30;99.90
51567;DHT22;37657;53.182;5.638;2023-06-05T07:51:30;13.30;99.90
51567;DHT22;37657;53.182;5.638;2023-06-05T07:53:58;13.20;99.90
51567;DHT22;37657;53.182;5.638;2023-06-05T07:56:26;13.30;99.90
51567;DHT22;37657;53.182;5.638;2023-06-05T07:58:51;13.30;99.90
51567;DHT22;37657;53.182;5.638;2023-06-05T08:01:17;13.40;99.90
51567;DHT22;37657;53.182;5.638;2023-06-05T08:03:43;13.30;99.90
51567;DHT22;37657;53.182;5.638;2023-06-05T08:06:09;13.30;99.90
51567;DHT22;37657;53.182;5.638;2023-06-05T08:08:35;13.40;99.90
51567;DHT22;37657;53.182;5.638;2023-06-05T08:11:01;13.40;99.90
51567;DHT22;37657;53.182;5.638;2023-06-05T08:13:26;13.40;99.90
51567;DHT22;37657;53.182;5.638;2023-06-05T08:15:52;13.40;99.90
51567;DHT22;37657;53.182;5.638;2023-06-05T08:18:18;13.60;99.90
51567;DHT22;37657;53.182;5.638;2023-06-05T08:20:43;13.60;99.90
51567;DHT22;37657;53.182;5.638;2023-06-05T08:23:09;13.70;99.90
51567;DHT22;37657;53.182;5.638;2023-06-05T08:25:34;13.60;99.90
51567;DHT22;37657;53.182;5.638;2023-06-05T08:28:00;13.60;99.90
51567;DHT22;37657;53.182;5.638;2023-06-05T08:30:26;13.60;99.90
51567;DHT22;37657;53.182;5.638;2023-06-05T08:32:51;13.60;99.90
51567;DHT22;37657;53.182;5.638;2023-06-05T08:35:17;13.60;99.90
51567;DHT22;37657;53.182;5.638;2023-06-05T08:37:42;13.60;99.90
51567;DHT22;37657;53.182;5.638;2023-06-05T08:40:08;13.60;99.90
51567;DHT22;37657;53.182;5.638;2023-06-05T08:42:37;13.70;99.90
51567;DHT22;37657;53.182;5.638;2023-06-05T08:45:07;13.90;99.90
51567;DHT22;37657;53.182;5.638;2023-06-05T08:47:36;14.10;99.90
51567;DHT22;37657;53.182;5.638;2023-06-05T08:50:03;14.30;99.90
51567;DHT22;37657;53.182;5.638;2023-06-05T08:52:33;14.20;99.90
51567;DHT22;37657;53.182;5.638;2023-06-05T08:55:00;14.40;99.90
51567;DHT22;37657;53.182;5.638;2023-06-05T08:57:27;14.30;99.90
51567;DHT22;37657;53.182;5.638;2023-06-05T08:59:54;14.20;99.90
51567;DHT22;37657;53.182;5.638;2023-06-05T09:02:19;14.10;99.90
51567;DHT22;37657;53.182;5.638;2023-06-05T09:04:45;14.20;99.90
51567;DHT22;37657;53.182;5.638;2023-06-05T09:07:12;14.30;99.90
51567;DHT22;37657;53.182;5.638;2023-06-05T09:09:37;14.40;99.90
51567;DHT22;37657;53.182;5.638;2023-06-05T09:12:05;14.40;99.90
51567;DHT22;37657;53.182;5.638;2023-06-05T09:14:31;14.40;99.90
51567;DHT22;37657;53.182;5.638;2023-06-05T09:16:58;14.60;99.90
51567;DHT22;37657;53.182;5.638;2023-06-05T09:19:24;14.80;99.90
51567;DHT22;37657;53.182;5.638;2023-06-05T09:21:54;15.00;99.90
51567;DHT22;37657;53.182;5.638;2023-06-05T09:24:23;15.10;99.90
51567;DHT22;37657;53.182;5.638;2023-06-05T09:27:06;15.10;99.90
51567;DHT22;37657;53.182;5.638;2023-06-05T09:32:01;15.20;99.90
51567;DHT22;37657;53.182;5.638;2023-06-05T09:34:32;15.20;99.90
51567;DHT22;37657;53.182;5.638;2023-06-05T09:37:00;15.30;99.90
51567;DHT22;37657;53.182;5.638;2023-06-05T09:39:27;15.20;99.90
51567;DHT22;37657;53.182;5.638;2023-06-05T09:41:57;15.20;99.90
51567;DHT22;37657;53.182;5.638;2023-06-05T09:44:23;15.00;99.90
51567;DHT22;37657;53.182;5.638;2023-06-05T09:47:01;15.10;99.90
51567;DHT22;37657;53.182;5.638;2023-06-05T09:49:30;15.40;99.90
51567;DHT22;37657;53.182;5.638;2023-06-05T09:52:00;15.80;99.90
51567;DHT22;37657;53.182;5.638;2023-06-05T09:54:28;16.10;99.90
51567;DHT22;37657;53.182;5.638;2023-06-05T09:57:02;16.30;99.90
51567;DHT22;37657;53.182;5.638;2023-06-05T09:59:33;16.20;99.90
51567;DHT22;37657;53.182;5.638;2023-06-05T10:02:03;16.00;99.90
51567;DHT22;37657;53.182;5.638;2023-06-05T10:04:45;15.90;99.90
51567;DHT22;37657;53.182;5.638;2023-06-05T10:07:12;15.80;99.90
51567;DHT22;37657;53.182;5.638;2023-06-05T10:09:38;15.70;99.90
51567;DHT22;37657;53.182;5.638;2023-06-05T10:12:07;15.70;99.90
51567;DHT22;37657;53.182;5.638;2023-06-05T10:14:36;15.80;99.90
51567;DHT22;37657;53.182;5.638;2023-06-05T10:17:02;16.00;99.90
51567;DHT22;37657;53.182;5.638;2023-06-05T10:19:29;16.30;99.90
51567;DHT22;37657;53.182;5.638;2023-06-05T10:21:55;16.40;99.90
51567;DHT22;37657;53.182;5.638;2023-06-05T10:24:33;16.30;99.90
51567;DHT22;37657;53.182;5.638;2023-06-05T10:30:26;16.60;99.90
51567;DHT22;37657;53.182;5.638;2023-06-05T10:33:17;16.90;99.90
51567;DHT22;37657;53.182;5.638;2023-06-05T10:35:53;17.20;99.90
51567;DHT22;37657;53.182;5.638;2023-06-05T10:38:27;17.30;99.90
51567;DHT22;37657;53.182;5.638;2023-06-05T10:40:54;17.10;99.90
51567;DHT22;37657;53.182;5.638;2023-06-05T10:43:31;17.10;99.90
51567;DHT22;37657;53.182;5.638;2023-06-05T10:45:59;16.90;99.90
51567;DHT22;37657;53.182;5.638;2023-06-05T10:49:07;16.70;99.90
51567;DHT22;37657;53.182;5.638;2023-06-05T10:54:06;17.00;99.90
51567;DHT22;37657;53.182;5.638;2023-06-05T10:59:33;17.10;99.90
51567;DHT22;37657;53.182;5.638;2023-06-05T11:07:18;17.00;99.90
51567;DHT22;37657;53.182;5.638;2023-06-05T11:15:35;17.50;99.90
51567;DHT22;37657;53.182;5.638;2023-06-05T11:18:26;17.40;99.90
51567;DHT22;37657;53.182;5.638;2023-06-05T11:20:52;17.10;99.90
51567;DHT22;37657;53.182;5.638;2023-06-05T11:23:18;17.00;99.90
51567;DHT22;37657;53.182;5.638;2023-06-05T11:25:43;16.90;99.90
51567;DHT22;37657;53.182;5.638;2023-06-05T11:28:10;16.90;99.90
51567;DHT22;37657;53.182;5.638;2023-06-05T11:30:42;16.90;99.90
51567;DHT22;37657;53.182;5.638;2023-06-05T11:33:09;16.80;99.90
51567;DHT22;37657;53.182;5.638;2023-06-05T11:35:38;16.80;99.90
51567;DHT22;37657;53.182;5.638;2023-06-05T11:38:30;17.10;99.90
51567;DHT22;37657;53.182;5.638;2023-06-05T11:40:56;17.30;99.90
51567;DHT22;37657;53.182;5.638;2023-06-05T11:43:21;17.20;99.90
51567;DHT22;37657;53.182;5.638;2023-06-05T11:48:17;17.30;99.90
51567;DHT22;37657;53.182;5.638;2023-06-05T11:53:24;17.30;99.90
51567;DHT22;37657;53.182;5.638;2023-06-05T11:55:51;17.20;99.90
51567;DHT22;37657;53.182;5.638;2023-06-05T11:58:23;17.00;99.90
51567;DHT22;37657;53.182;5.638;2023-06-05T12:00:50;17.10;99.90
51567;DHT22;37657;53.182;5.638;2023-06-05T12:03:20;17.10;99.90
51567;DHT22;37657;53.182;5.638;2023-06-05T12:05:47;16.90;99.90
51567;DHT22;37657;53.182;5.638;2023-06-05T12:08:24;17.10;99.90
51567;DHT22;37657;53.182;5.638;2023-06-05T12:10:55;17.00;99.90
51567;DHT22;37657;53.182;5.638;2023-06-05T12:13:23;16.80;99.90
51567;DHT22;37657;53.182;5.638;2023-06-05T12:16:00;16.80;99.90
51567;DHT22;37657;53.182;5.638;2023-06-05T12:18:35;16.70;99.90
51567;DHT22;37657;53.182;5.638;2023-06-05T12:21:01;16.50;99.90
51567;DHT22;37657;53.182;5.638;2023-06-05T12:23:29;16.50;99.90
51567;DHT22;37657;53.182;5.638;2023-06-05T12:26:02;16.70;99.90
51567;DHT22;37657;53.182;5.638;2023-06-05T12:28:29;16.70;99.90
51567;DHT22;37657;53.182;5.638;2023-06-05T12:30:55;16.60;99.90
51567;DHT22;37657;53.182;5.638;2023-06-05T12:33:22;16.80;99.90
51567;DHT22;37657;53.182;5.638;2023-06-05T12:36:07;16.80;99.90
51567;DHT22;37657;53.182;5.638;2023-06-05T12:38:37;16.90;99.90
51567;DHT22;37657;53.182;5.638;2023-06-05T12:41:03;17.00;99.90
51567;DHT22;37657;53.182;5.638;2023-06-05T12:43:31;17.10;99.90
51567;DHT22;37657;53.182;5.638;2023-06-05T12:45:57;16.80;99.90
51567;DHT22;37657;53.182;5.638;2023-06-05T12:48:22;16.80;99.90
51567;DHT22;37657;53.182;5.638;2023-06-05T12:50:49;16.70;99.90
51567;DHT22;37657;53.182;5.638;2023-06-05T12:53:15;16.70;99.90
51567;DHT22;37657;53.182;5.638;2023-06-05T12:55:40;16.60;99.90
51567;DHT22;37657;53.182;5.638;2023-06-05T12:58:06;16.70;99.90
51567;DHT22;37657;53.182;5.638;2023-06-05T13:00:32;16.70;99.90
51567;DHT22;37657;53.182;5.638;2023-06-05T13:02:57;16.80;99.90
51567;DHT22;37657;53.182;5.638;2023-06-05T13:05:23;16.80;99.90
51567;DHT22;37657;53.182;5.638;2023-06-05T13:07:48;16.80;99.90
51567;DHT22;37657;53.182;5.638;2023-06-05T13:10:16;16.70;99.90
51567;DHT22;37657;53.182;5.638;2023-06-05T13:12:43;16.70;99.90
51567;DHT22;37657;53.182;5.638;2023-06-05T13:15:09;16.80;99.90
51567;DHT22;37657;53.182;5.638;2023-06-05T13:17:35;16.90;99.90
51567;DHT22;37657;53.182;5.638;2023-06-05T13:20:06;17.00;99.90
51567;DHT22;37657;53.182;5.638;2023-06-05T13:22:41;16.90;99.90
51567;DHT22;37657;53.182;5.638;2023-06-05T13:25:07;16.90;99.90
51567;DHT22;37657;53.182;5.638;2023-06-05T13:27:34;17.00;99.90
51567;DHT22;37657;53.182;5.638;2023-06-05T13:30:00;17.00;99.90
51567;DHT22;37657;53.182;5.638;2023-06-05T13:32:25;17.10;99.90
51567;DHT22;37657;53.182;5.638;2023-06-05T13:34:51;16.90;99.90
51567;DHT22;37657;53.182;5.638;2023-06-05T13:37:20;16.90;99.90
51567;DHT22;37657;53.182;5.638;2023-06-05T13:39:45;17.00;99.90
51567;DHT22;37657;53.182;5.638;2023-06-05T13:42:11;17.00;99.90
51567;DHT22;37657;53.182;5.638;2023-06-05T13:44:37;16.90;99.90
51567;DHT22;37657;53.182;5.638;2023-06-05T13:47:03;16.90;99.90
51567;DHT22;37657;53.182;5.638;2023-06-05T13:49:29;16.90;99.90
51567;DHT22;37657;53.182;5.638;2023-06-05T13:51:56;16.90;99.90
51567;DHT22;37657;53.182;5.638;2023-06-05T13:54:22;16.80;99.90
51567;DHT22;37657;53.182;5.638;2023-06-05T13:56:47;16.80;99.90
51567;DHT22;37657;53.182;5.638;2023-06-05T13:59:13;16.60;99.90
51567;DHT22;37657;53.182;5.638;2023-06-05T14:01:38;16.80;99.90
51567;DHT22;37657;53.182;5.638;2023-06-05T14:04:04;16.70;99.90
51567;DHT22;37657;53.182;5.638;2023-06-05T14:06:31;16.70;99.90
51567;DHT22;37657;53.182;5.638;2023-06-05T14:08:56;16.80;99.90
51567;DHT22;37657;53.182;5.638;2023-06-05T14:11:22;16.90;99.90
51567;DHT22;37657;53.182;5.638;2023-06-05T14:13:47;16.80;99.90
51567;DHT22;37657;53.182;5.638;2023-06-05T14:16:13;16.90;99.90
51567;DHT22;37657;53.182;5.638;2023-06-05T14:18:39;16.90;99.90
51567;DHT22;37657;53.182;5.638;2023-06-05T14:21:04;16.80;99.90
51567;DHT22;37657;53.182;5.638;2023-06-05T14:23:30;16.70;99.90
51567;DHT22;37657;53.182;5.638;2023-06-05T14:25:56;16.70;99.90
51567;DHT22;37657;53.182;5.638;2023-06-05T14:28:21;16.70;99.90
51567;DHT22;37657;53.182;5.638;2023-06-05T14:30:48;16.60;99.90
51567;DHT22;37657;53.182;5.638;2023-06-05T14:33:13;16.50;99.90
51567;DHT22;37657;53.182;5.638;2023-06-05T14:35:39;16.70;99.90
51567;DHT22;37657;53.182;5.638;2023-06-05T14:38:05;16.60;99.90
51567;DHT22;37657;53.182;5.638;2023-06-05T14:40:31;16.70;99.90
51567;DHT22;37657;53.182;5.638;2023-06-05T14:42:58;16.60;99.90
51567;DHT22;37657;53.182;5.638;2023-06-05T14:45:24;16.60;99.90
51567;DHT22;37657;53.182;5.638;2023-06-05T14:47:50;16.70;99.90
51567;DHT22;37657;53.182;5.638;2023-06-05T14:50:16;16.60;99.90
51567;DHT22;37657;53.182;5.638;2023-06-05T14:52:42;16.60;99.90
51567;DHT22;37657;53.182;5.638;2023-06-05T14:55:08;16.50;99.90
51567;DHT22;37657;53.182;5.638;2023-06-05T14:57:34;16.50;99.90
51567;DHT22;37657;53.182;5.638;2023-06-05T15:00:00;16.50;99.90
51567;DHT22;37657;53.182;5.638;2023-06-05T15:02:27;16.40;99.90
51567;DHT22;37657;53.182;5.638;2023-06-05T15:04:52;16.40;99.90
51567;DHT22;37657;53.182;5.638;2023-06-05T15:07:19;16.40;99.90
51567;DHT22;37657;53.182;5.638;2023-06-05T15:09:46;16.40;99.90
51567;DHT22;37657;53.182;5.638;2023-06-05T15:12:12;16.40;99.90
51567;DHT22;37657;53.182;5.638;2023-06-05T15:14:37;16.40;99.90
51567;DHT22;37657;53.182;5.638;2023-06-05T15:17:03;16.40;99.90
51567;DHT22;37657;53.182;5.638;2023-06-05T15:19:29;16.30;99.90
51567;DHT22;37657;53.182;5.638;2023-06-05T15:21:54;16.40;99.90
51567;DHT22;37657;53.182;5.638;2023-06-05T15:24:20;16.40;99.90
51567;DHT22;37657;53.182;5.638;2023-06-05T15:26:45;16.30;99.90
51567;DHT22;37657;53.182;5.638;2023-06-05T15:29:11;16.20;99.90
51567;DHT22;37657;53.182;5.638;2023-06-05T15:31:37;16.30;99.90
51567;DHT22;37657;53.182;5.638;2023-06-05T15:34:02;16.20;99.90
51567;DHT22;37657;53.182;5.638;2023-06-05T15:36:28;16.00;99.90
51567;DHT22;37657;53.182;5.638;2023-06-05T15:38:53;16.10;99.90
51567;DHT22;37657;53.182;5.638;2023-06-05T15:41:21;16.00;99.90
51567;DHT22;37657;53.182;5.638;2023-06-05T15:43:46;16.00;99.90
51567;DHT22;37657;53.182;5.638;2023-06-05T15:46:13;16.00;99.90
51567;DHT22;37657;53.182;5.638;2023-06-05T15:48:38;16.10;99.90
51567;DHT22;37657;53.182;5.638;2023-06-05T15:51:05;16.00;99.90
51567;DHT22;37657;53.182;5.638;2023-06-05T15:53:31;16.00;99.90
51567;DHT22;37657;53.182;5.638;2023-06-05T15:55:56;15.90;99.90
51567;DHT22;37657;53.182;5.638;2023-06-05T15:58:22;15.90;99.90